Time;durP1;ratioP1;P1;durP2;ratioP2;P2;SDS_P1;SDS_P2;PMS_P1;PMS_P2;Temp;Humidity;BMP_temperature;BMP_pressure;BME280_temperature;BME280_humidity;BME280_pressure;Samples;Min_cycle;Max_cycle;Signal;HPM_P1;HPM_P2
2023/02/08 01:45:34;;;;;;;0.00;0.00;;;;;;;-1.51;75.82;102418.41;4048810;23;20149;-75
2023/02/08 01:48:33;;;;;;;0.00;0.00;;;;;;;-1.53;75.92;102420.38;4946489;28;20024;-76
2023/02/08 01:51:06;;;;;;;0.00;0.00;;;;;;;-1.54;77.31;102414.16;4939374;28;20508;-75
2023/02/08 01:53:34;;;;;;;0.00;0.00;;;;;;;-1.61;76.58;102408.50;4942378;29;20354;-76
2023/02/08 01:56:05;;;;;;;0.00;0.00;;;;;;;-1.70;76.43;102403.94;4952884;28;20031;-75
2023/02/08 01:58:33;;;;;;;0.10;0.10;;;;;;;-1.76;77.33;102385.72;4943198;29;20035;-74
2023/02/08 02:01:03;;;;;;;0.10;0.10;;;;;;;-1.69;77.41;102394.91;4938241;28;20768;-75
2023/02/08 02:03:29;;;;;;;0.10;0.10;;;;;;;-1.69;77.42;102397.59;4900410;28;20043;-75
2023/02/08 02:06:15;;;;;;;0.03;0.03;;;;;;;-1.72;77.34;102397.88;4940342;28;20027;-75
2023/02/08 02:09:09;;;;;;;0.00;0.00;;;;;;;-1.66;76.96;102410.75;4943008;29;20034;-75
2023/02/08 02:11:37;;;;;;;0.00;0.00;;;;;;;-2.02;76.66;102350.50;4954377;28;20027;-78
2023/02/08 02:14:09;;;;;;;0.10;0.10;;;;;;;-1.85;77.21;102373.13;4938479;29;20026;-78
2023/02/08 02:16:38;;;;;;;0.08;0.08;;;;;;;-1.87;77.09;102375.97;4937141;28;20034;-78
2023/02/08 02:19:07;;;;;;;0.00;0.00;;;;;;;-1.82;77.66;102383.59;4929939;29;20078;-77
2023/02/08 02:22:01;;;;;;;0.00;0.00;;;;;;;-1.77;77.92;102394.75;4936777;29;20496;-76
2023/02/08 02:25:02;;;;;;;0.00;0.00;;;;;;;-1.82;77.22;102388.97;4922310;28;20470;-75
2023/02/08 02:27:53;;;;;;;0.00;0.00;;;;;;;-1.85;78.11;102384.72;4938687;29;20055;-76
2023/02/08 02:30:51;;;;;;;0.00;0.00;;;;;;;-1.92;77.86;102367.47;4932429;28;20023;-77
2023/02/08 02:33:32;;;;;;;0.10;0.10;;;;;;;-1.88;77.40;102368.03;4938998;29;20102;-77
2023/02/08 02:36:01;;;;;;;0.10;0.10;;;;;;;-2.00;77.87;102352.06;4938683;29;20461;-78
2023/02/08 02:38:42;;;;;;;0.00;0.00;;;;;;;-1.91;77.68;102370.97;4930886;29;20083;-77
2023/02/08 02:44:56;;;;;;;0.00;0.00;;;;;;;-2.05;78.65;102348.09;4942217;28;20139;-77
2023/02/08 02:47:31;;;;;;;0.10;0.10;;;;;;;-2.13;78.22;102351.44;4912563;28;20046;-78
2023/02/08 02:50:03;;;;;;;0.10;0.10;;;;;;;-2.21;79.16;102348.56;4948142;28;20027;-78
2023/02/08 02:52:40;;;;;;;0.00;0.00;;;;;;;-2.31;78.70;102341.34;4940190;28;20082;-78
2023/02/08 02:55:16;;;;;;;0.00;0.00;;;;;;;-2.48;79.21;102328.56;4947392;28;20042;-77
2023/02/08 02:57:44;;;;;;;0.10;0.10;;;;;;;-2.34;79.43;102357.69;4957329;28;20091;-78
2023/02/08 03:00:12;;;;;;;0.00;0.00;;;;;;;-2.54;78.85;102323.72;4949230;28;20031;-76
2023/02/08 03:02:40;;;;;;;0.00;0.00;;;;;;;-2.51;78.84;102342.22;4921896;28;20094;-76
2023/02/08 03:05:14;;;;;;;0.10;0.10;;;;;;;-2.41;79.07;102366.38;4956615;23;20074;-78
2023/02/08 03:07:49;;;;;;;0.10;0.10;;;;;;;-2.49;79.73;102348.31;4951234;28;20023;-78
2023/02/08 03:10:48;;;;;;;0.05;0.05;;;;;;;-2.49;79.62;102353.66;4946774;28;20027;-79
2023/02/08 03:13:32;;;;;;;0.00;0.00;;;;;;;-2.50;79.80;102346.59;4944807;28;20027;-77
2023/02/08 03:16:26;;;;;;;0.00;0.00;;;;;;;-2.42;79.80;102344.13;4948708;28;20045;-75
2023/02/08 03:19:21;;;;;;;0.10;0.10;;;;;;;-2.40;79.42;102344.81;4951288;28;20106;-75
2023/02/08 03:21:52;;;;;;;0.10;0.10;;;;;;;-2.46;79.60;102340.00;4930177;28;20047;-74
2023/02/08 03:24:39;;;;;;;0.00;0.00;;;;;;;-2.49;79.79;102348.31;4955959;28;20050;-75
2023/02/08 03:27:30;;;;;;;0.00;0.00;;;;;;;-2.49;79.96;102332.22;4953096;28;20141;-74
2023/02/08 03:30:21;;;;;;;0.10;0.10;;;;;;;-2.52;79.72;102329.81;4948578;28;20496;-74
2023/02/08 03:33:08;;;;;;;0.10;0.10;;;;;;;-2.65;79.91;102312.13;4954405;28;20043;-74
2023/02/08 03:35:42;;;;;;;0.10;0.10;;;;;;;-2.61;79.04;102311.84;4949591;28;20042;-75
2023/02/08 03:38:20;;;;;;;0.00;0.00;;;;;;;-2.54;79.37;102318.38;4947835;28;20027;-79
2023/02/08 03:40:52;;;;;;;0.10;0.10;;;;;;;-2.53;79.34;102315.56;4949438;28;20024;-77
2023/02/08 03:43:25;;;;;;;0.10;0.10;;;;;;;-2.43;79.44;102315.63;4955213;28;20673;-79
2023/02/08 03:45:58;;;;;;;0.10;0.10;;;;;;;-2.21;78.94;102335.19;4946972;28;20030;-78
2023/02/08 03:48:28;;;;;;;0.10;0.10;;;;;;;-2.19;79.04;102317.13;4953101;28;20537;-78
2023/02/08 03:50:56;;;;;;;0.00;0.00;;;;;;;-2.13;78.81;102321.97;4941841;28;21301;-79
2023/02/08 03:53:26;;;;;;;0.10;0.10;;;;;;;-2.08;78.93;102308.97;4952956;28;20054;-76
2023/02/08 03:56:00;;;;;;;0.00;0.00;;;;;;;-2.05;78.18;102297.97;4943543;28;20037;-76
2023/02/08 03:58:36;;;;;;;0.10;0.10;;;;;;;-1.99;79.27;102301.94;4945674;28;20038;-76
2023/02/08 04:01:21;;;;;;;0.00;0.00;;;;;;;-1.95;78.87;102298.84;4948181;28;20485;-76
2023/02/08 04:03:52;;;;;;;0.10;0.10;;;;;;;-2.12;78.88;102286.97;4947586;28;20027;-76
2023/02/08 04:06:24;;;;;;;0.00;0.00;;;;;;;-2.40;79.66;102252.88;4943249;28;20055;-75
2023/02/08 04:09:21;;;;;;;0.00;0.00;;;;;;;-2.08;79.80;102308.16;4970740;28;20023;-77
2023/02/08 04:11:46;;;;;;;0.10;0.10;;;;;;;-2.32;79.17;102271.81;4932029;28;20066;-76
2023/02/08 04:14:19;;;;;;;0.10;0.10;;;;;;;-2.31;79.78;102260.97;4953879;28;20023;-74
2023/02/08 04:16:45;;;;;;;0.10;0.10;;;;;;;-2.31;80.06;102260.97;4948195;28;20031;-74
2023/02/08 04:19:11;;;;;;;0.00;0.00;;;;;;;-2.11;79.64;102302.03;4920814;29;20126;-75
2023/02/08 04:21:39;;;;;;;0.10;0.10;;;;;;;-2.16;80.02;102290.03;4948526;28;20037;-75
2023/02/08 04:24:08;;;;;;;0.00;0.00;;;;;;;-2.03;80.09;102305.88;4952604;28;20059;-75
2023/02/08 04:26:36;;;;;;;0.10;0.10;;;;;;;-1.96;80.67;102317.75;4952791;28;20038;-75
2023/02/08 04:29:02;;;;;;;0.00;0.00;;;;;;;-2.00;79.80;102301.13;4952889;28;20455;-76
2023/02/08 04:31:48;;;;;;;0.00;0.00;;;;;;;-1.97;79.56;102283.88;4952169;28;20019;-74
2023/02/08 04:34:13;;;;;;;0.00;0.00;;;;;;;-1.89;79.45;102294.78;4936495;29;20035;-76
2023/02/08 04:36:42;;;;;;;0.10;0.10;;;;;;;-1.72;79.18;102309.34;4949106;28;20087;-76
2023/02/08 04:39:08;;;;;;;0.00;0.00;;;;;;;-1.78;80.15;102293.81;4964514;28;20030;-75
2023/02/08 04:41:36;;;;;;;0.00;0.00;;;;;;;-1.81;79.59;102283.34;4947942;28;20130;-75
2023/02/08 04:44:01;;;;;;;0.00;0.00;;;;;;;-1.57;79.15;102317.84;4953662;28;20027;-75
2023/02/08 04:46:29;;;;;;;0.10;0.10;;;;;;;-1.60;79.44;102313.59;4949561;28;20389;-77
2023/02/08 04:48:55;;;;;;;0.10;0.10;;;;;;;-1.51;79.10;102324.50;4916729;29;20024;-78
2023/02/08 04:51:20;;;;;;;0.00;0.00;;;;;;;-1.63;79.23;102300.47;4953026;28;20035;-76
2023/02/08 04:53:46;;;;;;;0.00;0.00;;;;;;;-1.67;79.62;102295.53;4943700;28;20023;-75
2023/02/08 04:56:13;;;;;;;0.10;0.10;;;;;;;-1.75;79.54;102277.44;4913197;29;20039;-76
2023/02/08 04:58:49;;;;;;;;;;;;;;;;;;;;;
2023/02/08 05:01:15;;;;;;;0.10;0.10;;;;;;;-1.63;79.87;102297.78;4937654;28;20024;-75
2023/02/08 05:03:41;;;;;;;0.00;0.00;;;;;;;-1.67;80.30;102280.25;4942931;28;20067;-76
2023/02/08 05:06:17;;;;;;;0.10;0.10;;;;;;;-1.66;79.64;102276.59;4902408;29;20052;-76
2023/02/08 05:08:45;;;;;;;0.10;0.10;;;;;;;-1.59;80.77;102285.78;4900618;29;20070;-76
2023/02/08 05:11:13;;;;;;;0.10;0.10;;;;;;;-1.68;80.87;102270.53;4899583;29;20040;-75
2023/02/08 05:13:51;;;;;;;0.00;0.00;;;;;;;-1.82;80.46;102260.22;4932198;29;20034;-75
2023/02/08 05:16:18;;;;;;;0.08;0.08;;;;;;;-1.80;80.85;102263.59;4907042;29;20035;-78
2023/02/08 05:18:44;;;;;;;0.00;0.00;;;;;;;-1.65;80.61;102296.22;4904927;29;20099;-76
2023/02/08 05:21:12;;;;;;;0.10;0.10;;;;;;;-1.69;80.67;102292.16;4913330;29;20020;-76
2023/02/08 05:23:37;;;;;;;0.00;0.00;;;;;;;-1.82;81.49;102265.56;4914656;29;20478;-76
2023/02/08 05:26:08;;;;;;;0.00;0.00;;;;;;;-1.78;81.13;102267.84;4907216;29;20055;-76
2023/02/08 05:28:34;;;;;;;0.00;0.00;;;;;;;-1.83;81.05;102264.72;4910131;29;20063;-76
2023/02/08 05:31:36;;;;;;;;;;;;;;;;;;;;;
2023/02/08 05:34:03;;;;;;;0.10;0.10;;;;;;;-1.80;81.08;102244.81;4923745;29;20041;-75
2023/02/08 05:36:31;;;;;;;0.00;0.00;;;;;;;-1.65;80.85;102275.63;4882073;29;20390;-75
2023/02/08 05:38:57;;;;;;;0.00;0.00;;;;;;;-1.86;81.96;102253.44;4903176;29;20422;-76
2023/02/08 05:41:32;;;;;;;0.08;0.08;;;;;;;-1.83;81.62;102261.19;4909719;29;20031;-76
2023/02/08 05:43:57;;;;;;;0.10;0.10;;;;;;;-1.73;81.29;102270.09;4918471;29;20066;-74
2023/02/08 05:46:23;;;;;;;0.10;0.10;;;;;;;-1.72;81.10;102266.44;4898869;29;20035;-77
2023/02/08 05:48:48;;;;;;;0.05;0.05;;;;;;;-1.68;81.85;102286.63;4915187;29;20028;-76
2023/02/08 05:51:16;;;;;;;0.10;0.10;;;;;;;-1.82;82.08;102265.56;4900150;29;20402;-76
2023/02/08 05:53:48;;;;;;;0.00;0.00;;;;;;;-1.81;80.93;102264.56;4885780;29;20470;-76
2023/02/08 05:56:14;;;;;;;0.10;0.10;;;;;;;-1.75;81.68;102272.09;4915740;29;20074;-74
2023/02/08 05:58:40;;;;;;;0.10;0.10;;;;;;;-1.73;81.58;102274.63;4897254;29;20493;-77
2023/02/08 06:01:12;;;;;;;0.03;0.03;;;;;;;-1.71;82.10;102283.38;4906191;29;20032;-76
2023/02/08 06:03:39;;;;;;;0.10;0.10;;;;;;;-1.87;82.18;102257.09;4901079;28;20024;-74
2023/02/08 06:06:05;;;;;;;0.10;0.10;;;;;;;-1.82;81.48;102263.72;4945205;28;20058;-75
2023/02/08 06:08:31;;;;;;;0.10;0.10;;;;;;;-1.86;81.42;102256.94;4946073;28;20054;-75
2023/02/08 06:10:56;;;;;;;0.10;0.10;;;;;;;-1.85;81.65;102260.50;4951138;28;20486;-75
2023/02/08 06:13:22;;;;;;;0.00;0.00;;;;;;;-1.76;81.94;102286.47;4949402;28;20469;-77
2023/02/08 06:15:55;;;;;;;0.00;0.00;;;;;;;-1.95;81.93;102272.03;4946994;28;20040;-74
2023/02/08 06:18:21;;;;;;;0.00;0.00;;;;;;;-1.89;81.52;102291.25;4948357;28;20038;-75
2023/02/08 06:20:46;;;;;;;0.00;0.00;;;;;;;-1.91;81.84;102290.53;4935480;28;20031;-76
2023/02/08 06:23:12;;;;;;;0.10;0.10;;;;;;;-2.11;82.07;102266.34;4927733;29;20032;-75
2023/02/08 06:25:40;;;;;;;0.00;0.00;;;;;;;-2.09;82.83;102279.63;4948236;28;20027;-75
2023/02/08 06:28:07;;;;;;;0.10;0.10;;;;;;;-2.14;81.98;102282.72;4916298;29;20012;-74
2023/02/08 06:30:33;;;;;;;0.00;0.00;;;;;;;-2.21;82.36;102273.53;4949931;28;20026;-73
2023/02/08 06:32:58;;;;;;;0.00;0.00;;;;;;;-2.25;82.32;102274.78;4935048;28;20040;-75
2023/02/08 06:35:31;;;;;;;0.03;0.03;;;;;;;-2.32;82.70;102269.13;4936561;29;20039;-75
2023/02/08 06:37:57;;;;;;;0.00;0.00;;;;;;;-2.17;82.39;102304.44;4947439;28;20090;-74
2023/02/08 06:40:23;;;;;;;0.00;0.00;;;;;;;-2.21;82.89;102297.66;4930580;28;20030;-76
2023/02/08 06:42:49;;;;;;;0.00;0.00;;;;;;;-2.46;82.55;102278.38;4950657;28;20035;-76
2023/02/08 06:45:15;;;;;;;0.10;0.10;;;;;;;-2.54;82.35;102281.72;4953964;28;20043;-75
2023/02/08 06:47:41;;;;;;;0.00;0.00;;;;;;;-2.55;82.43;102289.91;4954873;28;20503;-74
2023/02/08 06:50:09;;;;;;;0.10;0.10;;;;;;;-2.71;82.52;102280.50;4938133;28;20115;-74
2023/02/08 06:52:38;;;;;;;0.00;0.00;;;;;;;-2.67;82.68;102300.69;4945275;28;20034;-75
2023/02/08 06:55:03;;;;;;;0.05;0.05;;;;;;;-2.91;83.07;102268.84;4951526;28;20051;-74
2023/02/08 06:57:51;;;;;;;0.00;0.00;;;;;;;-3.08;82.93;102256.91;4938710;29;20518;-76
2023/02/08 07:00:17;;;;;;;0.00;0.00;;;;;;;-3.01;83.22;102289.34;4953887;28;20032;-76
2023/02/08 07:02:46;;;;;;;0.00;0.00;;;;;;;-3.16;83.12;102268.25;4946091;28;20486;-75
2023/02/08 07:05:32;;;;;;;;;;;;;;;;;;;;;
2023/02/08 07:07:58;;;;;;;0.00;0.00;;;;;;;-3.31;82.48;102250.84;4949669;28;20335;-78
2023/02/08 07:10:23;;;;;;;0.00;0.00;;;;;;;-3.22;82.62;102270.63;4943163;28;20126;-78
2023/02/08 07:12:52;;;;;;;0.10;0.10;;;;;;;-3.30;82.67;102262.38;4950269;28;20932;-78
2023/02/08 07:15:34;;;;;;;0.00;0.00;;;;;;;-3.33;82.88;102264.34;4936332;28;20019;-76
2023/02/08 07:17:59;;;;;;;0.00;0.00;;;;;;;-3.35;82.49;102270.81;4933624;29;20093;-81
2023/02/08 07:20:25;;;;;;;0.10;0.10;;;;;;;-3.41;82.79;102265.97;4928801;28;21537;-80
2023/02/08 07:23:01;;;;;;;0.00;0.00;;;;;;;-3.38;82.95;102266.56;4918813;29;20094;-80
2023/02/08 07:25:34;;;;;;;0.00;0.00;;;;;;;-3.43;82.79;102263.44;4935329;29;20050;-80
2023/02/08 07:27:59;;;;;;;0.00;0.00;;;;;;;-3.59;82.63;102246.94;4928300;29;20019;-79
2023/02/08 07:30:34;;;;;;;0.10;0.10;;;;;;;-3.52;82.90;102264.19;4937808;28;20107;-81
2023/02/08 07:33:07;;;;;;;0.00;0.00;;;;;;;-3.53;82.97;102273.19;4933330;28;20537;-81
2023/02/08 07:35:41;;;;;;;0.10;0.10;;;;;;;-3.43;82.77;102286.63;4942516;28;20957;-81
2023/02/08 07:38:06;;;;;;;0.10;0.10;;;;;;;-3.52;82.96;102280.22;4929616;28;20037;-80
2023/02/08 07:40:34;;;;;;;0.10;0.10;;;;;;;-3.45;82.62;102286.75;4931324;29;20039;-82
2023/02/08 07:43:02;;;;;;;0.00;0.00;;;;;;;-3.47;82.22;102277.19;4932619;28;20461;-80
2023/02/08 07:45:38;;;;;;;;;;;;;;;;;;;;;
2023/02/08 07:48:09;;;;;;;0.10;0.10;;;;;;;-3.52;82.34;102280.22;4945034;28;20571;-80
2023/02/08 07:50:34;;;;;;;0.00;0.00;;;;;;;-3.46;82.41;102279.75;4949986;28;20031;-80
2023/02/08 07:56:49;;;;;;;0.00;0.00;;;;;;;-3.43;82.46;102259.88;4845602;29;20041;-83
2023/02/08 07:59:37;;;;;;;0.00;0.00;;;;;;;-3.43;82.51;102255.41;4871429;28;20054;-84
2023/02/08 08:02:15;;;;;;;0.00;0.00;;;;;;;-3.40;82.22;102252.47;4944564;28;20144;-78
2023/02/08 08:04:45;;;;;;;0.00;0.00;;;;;;;-3.10;81.68;102285.63;4944643;28;20055;-79
2023/02/08 08:07:28;;;;;;;0.00;0.00;;;;;;;-3.05;82.00;102278.06;4943791;28;20031;-83
2023/02/08 08:09:54;;;;;;;0.00;0.00;;;;;;;-2.96;81.60;102291.63;4950180;28;20035;-82
2023/02/08 08:12:30;;;;;;;;;;;;;;;;;;;;;
2023/02/08 08:14:56;;;;;;;0.00;0.00;;;;;;;-2.91;81.22;102271.50;4950063;28;20110;-82
2023/02/08 08:17:43;;;;;;;;;;;;;;;;;;;;;
2023/02/08 08:20:19;;;;;;;0.00;0.00;;;;;;;-2.48;81.06;102297.25;4955903;28;20118;-82
2023/02/08 08:23:13;;;;;;;0.00;0.00;;;;;;;-2.52;80.54;102254.81;4958236;28;20015;-82
2023/02/08 08:25:44;;;;;;;0.10;0.10;;;;;;;-2.19;79.42;102274.22;4957164;28;20034;-81
2023/02/08 08:28:32;;;;;;;0.10;0.10;;;;;;;-2.00;79.15;102279.66;4958300;28;20063;-81
2023/02/08 08:31:03;;;;;;;0.00;0.00;;;;;;;-2.06;78.30;102253.38;4945080;28;20043;-80
2023/02/08 08:33:28;;;;;;;0.00;0.00;;;;;;;-1.96;78.43;102267.69;4967999;28;20046;-81
2023/02/08 08:35:54;;;;;;;0.10;0.10;;;;;;;-1.87;78.63;102254.41;4960280;28;20060;-82
2023/02/08 08:38:23;;;;;;;0.00;0.00;;;;;;;-1.64;78.02;102277.28;4956181;28;20106;-81
2023/02/08 08:41:14;;;;;;;0.10;0.10;;;;;;;-1.47;77.02;102281.13;4957564;28;20054;-81
2023/02/08 08:43:50;;;;;;;0.00;0.00;;;;;;;-1.31;77.71;102285.09;4951913;28;20058;-81
2023/02/08 09:00:54;;;;;;;;;;;;;;;;;;;;;
2023/02/08 09:03:24;;;;;;;0.10;0.10;;;;;;;11.15;47.57;102284.13;4904307;29;20099;-81
2023/02/08 09:05:50;;;;;;;0.10;0.10;;;;;;;12.58;44.19;102292.16;4906586;29;20065;-81
2023/02/08 09:08:41;;;;;;;0.00;0.00;;;;;;;14.07;41.50;102278.31;4918063;29;20040;-81
2023/02/08 09:11:37;;;;;;;;;;;;;;;;;;;;;
2023/02/08 09:14:12;;;;;;;0.10;0.10;;;;;;;16.76;37.20;102295.75;4944877;29;20046;-82
2023/02/08 09:16:52;;;;;;;;;;;;;;;;;;;;;
2023/02/08 09:19:33;;;;;;;;;;;;;;;;;;;;;
2023/02/08 09:22:41;;;;;;;0.00;0.00;;;;;;;19.29;33.72;102267.97;4925963;29;20095;-83
2023/02/08 09:25:20;;;;;;;;;;;;;;;;;;;;;
2023/02/08 09:27:45;;;;;;;0.00;0.00;;;;;;;20.57;31.72;102279.63;4914309;29;20110;-82
2023/02/08 09:30:11;;;;;;;0.00;0.00;;;;;;;21.30;31.44;102269.56;4911868;29;20058;-82
2023/02/08 09:32:51;;;;;;;0.00;0.00;;;;;;;22.03;30.46;102275.94;4908148;29;20039;-82
2023/02/08 09:35:25;;;;;;;0.10;0.10;;;;;;;22.62;30.53;102276.53;4915368;29;20019;-79
2023/02/08 09:37:54;;;;;;;0.00;0.00;;;;;;;23.29;29.30;102258.66;4911720;29;20466;-80
2023/02/08 09:40:50;;;;;;;0.00;0.00;;;;;;;24.14;28.25;102275.06;4931073;29;20032;-80
2023/02/08 09:43:42;;;;;;;0.00;0.00;;;;;;;24.86;27.08;102273.38;4916648;29;20039;-80
2023/02/08 09:46:34;;;;;;;;;;;;;;;;;;;;;
2023/02/08 09:49:03;;;;;;;0.00;0.00;;;;;;;25.55;25.90;102274.06;4923837;29;20030;-81
2023/02/08 09:51:36;;;;;;;0.00;0.00;;;;;;;25.85;24.59;102285.56;4913714;29;20024;-80
2023/02/08 09:54:15;;;;;;;0.00;0.00;;;;;;;26.25;24.44;102280.69;4914430;29;20108;-81
2023/02/08 09:56:44;;;;;;;0.00;0.00;;;;;;;26.83;23.89;102275.72;4926794;29;20008;-80
2023/02/08 09:59:23;;;;;;;0.00;0.00;;;;;;;27.49;23.44;102268.13;4914790;29;20024;-80
2023/02/08 10:01:52;;;;;;;0.00;0.00;;;;;;;28.37;22.47;102274.00;4910601;29;20075;-82
2023/02/08 10:04:48;;;;;;;0.00;0.00;;;;;;;29.10;21.93;102283.09;4929417;28;20074;-80
2023/02/08 10:07:16;;;;;;;0.00;0.00;;;;;;;29.76;21.49;102266.03;4920256;28;20054;-80
2023/02/08 10:09:41;;;;;;;0.00;0.00;;;;;;;30.20;21.03;102278.66;4918859;29;20681;-80
2023/02/08 10:12:10;;;;;;;0.00;0.00;;;;;;;30.58;20.53;102278.22;4932270;29;20118;-81
2023/02/08 10:14:59;;;;;;;0.00;0.00;;;;;;;31.03;19.97;102269.75;4952606;28;20100;-81
2023/02/08 10:18:02;;;;;;;0.00;0.00;;;;;;;31.54;19.47;102275.53;4944853;28;20015;-81
2023/02/08 10:20:54;;;;;;;0.00;0.00;;;;;;;31.92;18.82;102271.19;4960564;28;20027;-80
2023/02/08 10:23:30;;;;;;;;;;;;;;;;;;;;;
2023/02/08 10:26:13;;;;;;;0.00;0.00;;;;;;;32.79;18.00;102262.50;4956260;28;20138;-80
2023/02/08 10:28:47;;;;;;;0.00;0.00;;;;;;;33.43;17.26;102262.03;4964656;28;20055;-80
2023/02/08 10:31:41;;;;;;;0.00;0.00;;;;;;;33.95;17.07;102275.78;4906623;28;20035;-80
2023/02/08 10:34:40;;;;;;;0.00;0.00;;;;;;;34.54;16.73;102267.66;4965518;28;20038;-80
2023/02/08 10:37:24;;;;;;;0.00;0.00;;;;;;;35.34;15.90;102263.59;4944038;28;20047;-80
2023/02/08 10:40:11;;;;;;;0.00;0.00;;;;;;;35.71;15.64;102257.78;4950793;28;20105;-81
2023/02/08 10:42:36;;;;;;;0.00;0.00;;;;;;;35.95;15.08;102253.47;4947678;28;20046;-81
2023/02/08 10:45:26;;;;;;;0.00;0.00;;;;;;;36.48;14.80;102262.66;4955387;28;20410;-80
2023/02/08 10:47:55;;;;;;;0.00;0.00;;;;;;;36.90;14.73;102249.75;4946692;28;20035;-81
2023/02/08 10:50:33;;;;;;;0.00;0.00;;;;;;;37.21;14.63;102253.00;4951072;28;20429;-81
2023/02/08 10:52:58;;;;;;;0.00;0.00;;;;;;;37.61;14.67;102258.69;4939448;28;20030;-81
2023/02/08 10:55:24;;;;;;;0.00;0.00;;;;;;;37.87;14.33;102248.88;4931288;28;20055;-80
2023/02/08 10:57:57;;;;;;;0.00;0.00;;;;;;;38.00;14.53;102252.91;4947426;28;21570;-79
2023/02/08 11:00:52;;;;;;;0.00;0.00;;;;;;;38.54;14.24;102255.50;4927325;29;20054;-80
2023/02/08 11:03:22;;;;;;;0.00;0.00;;;;;;;38.62;13.86;102239.13;4960985;28;20031;-80
2023/02/08 11:05:49;;;;;;;0.00;0.00;;;;;;;38.86;13.70;102225.09;4949770;28;20047;-79
2023/02/08 11:08:22;;;;;;;0.00;0.00;;;;;;;39.60;13.31;102247.75;4928495;28;20031;-79
2023/02/08 11:10:58;;;;;;;0.00;0.00;;;;;;;40.06;13.23;102251.38;4967164;28;20385;-80
2023/02/08 11:13:35;;;;;;;0.00;0.00;;;;;;;40.31;12.87;102256.75;4948461;28;20039;-80
2023/02/08 11:16:11;;;;;;;0.00;0.00;;;;;;;40.46;12.76;102235.25;4948010;28;20023;-80
2023/02/08 11:18:47;;;;;;;0.00;0.00;;;;;;;40.64;11.79;102222.69;4951267;28;20367;-81
2023/02/08 11:21:38;;;;;;;0.00;0.00;;;;;;;40.69;11.74;102227.16;4941826;28;20042;-81
2023/02/08 11:24:28;;;;;;;0.00;0.00;;;;;;;40.87;10.91;102233.38;4943571;28;20042;-80
2023/02/08 11:27:01;;;;;;;0.00;0.00;;;;;;;40.89;10.76;102224.34;4959180;28;20417;-79
2023/02/08 11:29:30;;;;;;;0.00;0.00;;;;;;;40.97;11.05;102208.69;4939227;28;20019;-79
2023/02/08 11:32:16;;;;;;;0.00;0.00;;;;;;;41.38;10.82;102229.72;4947780;28;20038;-80
2023/02/08 11:34:42;;;;;;;0.00;0.00;;;;;;;41.62;10.74;102221.84;4951972;28;20020;-80
2023/02/08 11:37:16;;;;;;;0.00;0.00;;;;;;;41.82;10.37;102219.84;4932215;28;20035;-79
2023/02/08 11:39:50;;;;;;;0.00;0.00;;;;;;;41.76;10.59;102221.56;4956060;28;20023;-80
2023/02/08 11:42:46;;;;;;;0.00;0.00;;;;;;;41.75;10.83;102222.84;4950812;28;20110;-80
2023/02/08 11:45:40;;;;;;;0.00;0.00;;;;;;;41.91;10.18;102233.59;4929409;28;20043;-80
2023/02/08 11:48:37;;;;;;;0.00;0.00;;;;;;;42.31;9.95;102218.38;4944610;28;20054;-78
2023/02/08 11:51:03;;;;;;;0.00;0.00;;;;;;;42.03;9.98;102209.13;4943216;28;20107;-79
2023/02/08 11:53:28;;;;;;;0.00;0.00;;;;;;;42.10;10.25;102217.59;4936512;28;20463;-79
2023/02/08 11:56:11;;;;;;;;;;;;;;;;;;;;;
2023/02/08 11:58:37;;;;;;;0.00;0.00;;;;;;;43.04;10.29;102192.38;4946207;28;20057;-80
2023/02/08 12:01:15;;;;;;;0.00;0.00;;;;;;;43.09;10.05;102194.69;4935235;29;20506;-80
2023/02/08 12:03:41;;;;;;;0.00;0.00;;;;;;;43.39;9.78;102195.53;4944918;28;21413;-80
2023/02/08 12:06:44;;;;;;;0.00;0.00;;;;;;;44.00;9.84;102187.19;4933875;28;20062;-80
2023/02/08 12:09:46;;;;;;;0.00;0.00;;;;;;;43.85;9.52;102169.56;4940620;28;20024;-80
2023/02/08 12:12:25;;;;;;;0.00;0.00;;;;;;;42.75;9.43;102163.53;4881284;29;20031;-81
2023/02/08 12:14:56;;;;;;;0.00;0.00;;;;;;;41.99;9.86;102157.50;4946419;28;20126;-79
2023/02/08 12:17:33;;;;;;;0.00;0.00;;;;;;;41.43;10.32;102157.44;4953316;28;20121;-80
2023/02/08 12:20:22;;;;;;;0.00;0.00;;;;;;;41.10;10.48;102152.31;4949530;28;20028;-81
2023/02/08 12:23:26;;;;;;;0.00;0.00;;;;;;;39.76;11.27;102142.09;4949000;28;20019;-79
2023/02/08 12:26:31;;;;;;;0.00;0.00;;;;;;;39.98;10.62;102130.31;4940571;28;20027;-79
2023/02/08 12:29:27;;;;;;;0.00;0.00;;;;;;;38.14;11.10;102114.94;4920508;28;20075;-79
2023/02/08 12:32:14;;;;;;;0.00;0.00;;;;;;;36.95;11.69;102126.75;4939718;28;20035;-79
2023/02/08 12:34:55;;;;;;;0.00;0.00;;;;;;;36.41;12.50;102131.63;4954077;28;20034;-79
2023/02/08 12:43:27;;;;;;;0.00;0.00;;;;;;;36.96;12.00;102110.47;4943163;28;20105;-79
2023/02/08 12:46:07;;;;;;;0.00;0.00;;;;;;;36.14;12.49;102092.06;4915547;28;20454;-80
2023/02/08 12:48:39;;;;;;;0.00;0.00;;;;;;;36.55;12.52;102097.47;4949456;28;20034;-80
2023/02/08 12:51:07;;;;;;;0.00;0.00;;;;;;;36.50;12.43;102080.75;4935650;28;20478;-79
2023/02/08 12:53:55;;;;;;;0.00;0.00;;;;;;;36.86;12.29;102081.56;4947867;28;20062;-80
2023/02/08 13:14:30;;;;;;;;;;;;;;;;;;;;;
2023/02/08 13:20:43;;;;;;;;;;;;;;;;;;;;;
2023/02/08 13:54:19;;;;;;;0.00;0.00;;;;;;;30.45;16.11;101941.63;4912243;29;20071;-80
2023/02/08 13:56:50;;;;;;;0.00;0.00;;;;;;;30.76;15.97;101959.66;4911925;29;20076;-80
2023/02/08 13:59:34;;;;;;;0.00;0.00;;;;;;;31.93;15.20;101960.88;4910583;29;20029;-81
2023/02/08 14:02:21;;;;;;;0.00;0.00;;;;;;;31.38;15.17;101952.53;4904837;29;20028;-80
2023/02/08 14:04:52;;;;;;;0.00;0.00;;;;;;;31.51;14.99;101934.19;4955362;28;20133;-80
2023/02/08 14:07:39;;;;;;;0.00;0.00;;;;;;;30.72;14.86;101941.81;4950490;28;20044;-81
2023/02/08 14:10:23;;;;;;;0.00;0.00;;;;;;;29.81;15.37;101948.41;4977545;28;20032;-82
2023/02/08 14:12:55;;;;;;;;;;;;;;;29.45;16.37;101928.50;4952081;28;20015;-81
2023/02/08 14:15:21;;;;;;;0.00;0.00;;;;;;;29.98;15.54;101928.34;4959467;28;19918;-80
2023/02/08 14:17:53;;;;;;;0.00;0.00;;;;;;;28.95;16.49;101908.13;4947612;28;20034;-81
2023/02/08 14:20:57;;;;;;;0.00;0.00;;;;;;;27.90;17.25;101917.19;4947356;29;20103;-80
2023/02/08 14:23:26;;;;;;;0.00;0.00;;;;;;;27.84;17.69;101913.78;4949793;28;20024;-81
2023/02/08 14:26:07;;;;;;;0.00;0.00;;;;;;;28.07;17.75;101913.41;4962622;28;20043;-80
2023/02/08 14:28:45;;;;;;;0.00;0.00;;;;;;;27.96;16.74;101913.78;4952931;28;20045;-81
2023/02/08 14:31:12;;;;;;;0.00;0.00;;;;;;;27.32;16.66;101882.28;4960529;28;20039;-80
2023/02/08 14:34:29;;;;;;;0.00;0.00;;;;;;;26.37;17.61;101903.44;4957739;28;20063;-80
2023/02/08 14:37:03;;;;;;;0.00;0.00;;;;;;;26.93;17.99;101901.28;4895587;29;20115;-80
2023/02/08 14:39:36;;;;;;;;;;;;;;;27.43;16.40;101901.53;4890718;29;20033;-80
2023/02/08 14:42:07;;;;;;;0.00;0.00;;;;;;;27.19;16.63;101886.19;4886835;28;19920;-80
2023/02/08 14:44:49;;;;;;;0.00;0.00;;;;;;;27.00;16.84;101898.75;4962776;28;20118;-80
2023/02/08 14:47:34;;;;;;;;;;;;;;;;;;;;;
2023/02/08 14:50:18;;;;;;;0.00;0.00;;;;;;;27.16;17.57;101884.06;4961213;28;20561;-80
2023/02/08 14:52:57;;;;;;;0.00;0.00;;;;;;;27.75;16.50;101887.78;4959412;28;20043;-81
2023/02/08 14:55:33;;;;;;;0.00;0.00;;;;;;;27.45;16.03;101877.53;4961572;28;20046;-80
2023/02/08 14:58:09;;;;;;;0.00;0.00;;;;;;;27.34;17.16;101863.09;4958683;28;20105;-80
2023/02/08 15:01:03;;;;;;;0.00;0.00;;;;;;;28.25;16.64;101850.09;4954163;28;20095;-78
2023/02/08 15:03:33;;;;;;;0.00;0.00;;;;;;;27.96;16.82;101885.69;4955893;28;20027;-80
2023/02/08 15:06:15;;;;;;;0.00;0.00;;;;;;;27.88;16.94;101881.00;4952394;28;20090;-80
2023/02/08 15:08:51;;;;;;;0.00;0.00;;;;;;;27.36;17.00;101882.41;4960474;28;20035;-80
2023/02/08 15:11:57;;;;;;;;;;;;;;;;;;;;;
2023/02/08 15:14:23;;;;;;;0.00;0.00;;;;;;;27.09;15.58;101847.31;4958683;28;20110;-78
2023/02/08 15:16:59;;;;;;;;;;;;;;;;;;;;;
2023/02/08 15:19:41;;;;;;;0.00;0.00;;;;;;;26.04;15.84;101865.69;4958642;28;20569;-78
2023/02/08 15:22:23;;;;;;;0.00;0.00;;;;;;;25.55;16.66;101862.38;4958197;28;20035;-78
2023/02/08 15:25:04;;;;;;;;;;;;;;;;;;;;;
2023/02/08 15:27:33;;;;;;;0.00;0.00;;;;;;;25.34;16.94;101862.28;4961187;28;20091;-81
2023/02/08 15:30:24;;;;;;;0.00;0.00;;;;;;;25.51;16.28;101861.41;4950760;28;20031;-79
2023/02/08 15:33:01;;;;;;;0.00;0.00;;;;;;;25.03;16.63;101852.09;4962228;28;20043;-80
2023/02/08 15:35:32;;;;;;;0.00;0.00;;;;;;;24.06;17.67;101825.94;4968605;28;20014;-80
2023/02/08 15:38:04;;;;;;;0.00;0.00;;;;;;;23.32;18.39;101869.28;4964428;28;20035;-79